PWSweather.com
Personal Weather Stations
Station Observations
BLACKWELL
Blackwell, AlfretonGB DE55

BlackwellAlfretonGB DE55

Lat: 53.12076, Lon: -1.354978

Elevation: 410

Station Type: Vantage Pro

High Low Average
Temperature 52.9°F11.6°C 39.7°F4.3°C 47.5°F8.6°C
Dew Point 47.7°F8.7°C 37.0°F2.8°C 44.2°F6.8°C
Winds 10.0 mph 16.1 kmh Calm Calm 5.0 mph SW8.0 kmh SW
Wind Gusts 21.0 mph33.8 kmh 1.0 mph1.6 kmh 12.0 mph19.3 kmh
Humidity 96% 79% 89%
Pressure 29.69 in1005.4 mb 29.19 in988.5 mb -
Precipitation 0.53 in13.5 mm - -
Hour Temp Dew Point Humidity Winds Wind Gusts Pressure Precip Precip Rate Daily Precip Total
12:34 AM 43.5°F6.4°C 41.0°F5.0°C 91% Calm Calm 2.0 mph3.2 kmh 29.69 in1005.4 mb 0.02 in0.5 mm 0.04 in1.0 mm 0.02 in0.5 mm
01:34 AM 43.3°F6.3°C 41.4°F5.2°C 93% Calm Calm 4.0 mph6.4 kmh 29.65 in1004.1 mb 0.03 in0.8 mm 0.00 in0.0 mm 0.05 in1.3 mm
02:34 AM 43.3°F6.3°C 41.7°F5.4°C 94% Calm Calm 1.0 mph1.6 kmh 29.59 in1002.0 mb 0.04 in1.0 mm 0.00 in0.0 mm 0.09 in2.3 mm
03:34 AM 44.8°F7.1°C 43.7°F6.5°C 96% 1.0 mph S1.6 kmh S 5.0 mph8.0 kmh 29.54 in1000.3 mb 0.06 in1.5 mm 0.00 in0.0 mm 0.15 in3.8 mm
04:34 AM 48.6°F9.2°C 47.5°F8.6°C 96% 4.0 mph WSW6.4 kmh WSW 9.0 mph14.5 kmh 29.51 in999.3 mb 0.04 in1.0 mm 0.00 in0.0 mm 0.19 in4.8 mm
05:34 AM 49.3°F9.6°C 47.7°F8.7°C 94% 5.0 mph WSW8.0 kmh WSW 11.0 mph17.7 kmh 29.49 in998.6 mb 0.04 in1.0 mm 0.00 in0.0 mm 0.23 in5.8 mm
06:34 AM 49.3°F9.6°C 46.9°F8.3°C 92% 6.0 mph WSW9.7 kmh WSW 11.0 mph17.7 kmh 29.45 in997.3 mb 0.04 in1.0 mm 0.00 in0.0 mm 0.27 in6.9 mm
07:34 AM 49.8°F9.9°C 46.9°F8.3°C 90% 7.0 mph WSW11.3 kmh WSW 16.0 mph25.7 kmh 29.42 in996.3 mb 0.01 in0.3 mm 0.00 in0.0 mm 0.28 in7.1 mm
08:34 AM 50.5°F10.3°C 46.9°F8.3°C 87% 8.0 mph WSW12.9 kmh WSW 14.0 mph22.5 kmh 29.39 in995.3 mb 0.00 in0.0 mm 0.00 in0.0 mm 0.28 in7.1 mm
09:34 AM 51.3°F10.7°C 46.2°F7.9°C 83% 10.0 mph WSW16.1 kmh WSW 21.0 mph33.8 kmh 29.38 in994.9 mb 0.00 in0.0 mm 0.00 in0.0 mm 0.28 in7.1 mm
10:34 AM 50.9°F10.5°C 46.2°F7.9°C 84% 8.0 mph WSW12.9 kmh WSW 20.0 mph32.2 kmh 29.37 in994.6 mb 0.00 in0.0 mm 0.00 in0.0 mm 0.28 in7.1 mm
11:34 AM 50.7°F10.4°C 46.8°F8.2°C 86% 8.0 mph WSW12.9 kmh WSW 20.0 mph32.2 kmh 29.36 in994.2 mb 0.00 in0.0 mm 0.00 in0.0 mm 0.28 in7.1 mm
12:34 PM 52.2°F11.2°C 47.1°F8.4°C 83% 10.0 mph WSW16.1 kmh WSW 21.0 mph33.8 kmh 29.32 in992.9 mb 0.00 in0.0 mm 0.00 in0.0 mm 0.28 in7.1 mm
01:34 PM 52.9°F11.6°C 46.8°F8.2°C 80% 9.0 mph WSW14.5 kmh WSW 21.0 mph33.8 kmh 29.29 in991.9 mb 0.00 in0.0 mm 0.00 in0.0 mm 0.28 in7.1 mm
02:34 PM 52.9°F11.6°C 46.6°F8.1°C 79% 9.0 mph WSW14.5 kmh WSW 18.0 mph29.0 kmh 29.26 in990.9 mb 0.00 in0.0 mm 0.00 in0.0 mm 0.28 in7.1 mm
03:34 PM 51.3°F10.7°C 47.3°F8.5°C 86% 8.0 mph WSW12.9 kmh WSW 15.0 mph24.1 kmh 29.24 in990.2 mb 0.00 in0.0 mm 0.00 in0.0 mm 0.28 in7.1 mm
04:34 PM 50.2°F10.1°C 46.9°F8.3°C 89% 7.0 mph WSW11.3 kmh WSW 16.0 mph25.7 kmh 29.21 in989.2 mb 0.05 in1.3 mm 0.00 in0.0 mm 0.32 in8.1 mm
05:34 PM 49.3°F9.6°C 46.8°F8.2°C 91% 7.0 mph WSW11.3 kmh WSW 14.0 mph22.5 kmh 29.19 in988.5 mb 0.06 in1.5 mm 0.00 in0.0 mm 0.38 in9.7 mm
06:34 PM 47.8°F8.8°C 45.3°F7.4°C 91% 5.0 mph SW8.0 kmh SW 12.0 mph19.3 kmh 29.20 in988.8 mb 0.09 in2.3 mm 0.00 in0.0 mm 0.46 in11.7 mm
07:34 PM 42.4°F5.8°C 39.7°F4.3°C 90% 2.0 mph SW3.2 kmh SW 8.0 mph12.9 kmh 29.25 in990.5 mb 0.06 in1.5 mm 0.00 in0.0 mm 0.52 in13.2 mm
08:34 PM 42.3°F5.7°C 38.7°F3.7°C 87% 1.0 mph SW1.6 kmh SW 6.0 mph9.7 kmh 29.28 in991.5 mb 0.00 in0.0 mm 0.00 in0.0 mm 0.52 in13.2 mm
09:34 PM 41.5°F5.3°C 37.4°F3.0°C 85% 1.0 mph SW1.6 kmh SW 7.0 mph11.3 kmh 29.29 in991.9 mb 0.00 in0.0 mm 0.00 in0.0 mm 0.52 in13.2 mm
10:34 PM 41.2°F5.1°C 37.9°F3.3°C 88% Calm Calm 4.0 mph6.4 kmh 29.31 in992.6 mb 0.00 in0.0 mm 0.00 in0.0 mm 0.52 in13.2 mm
11:34 PM 39.7°F4.3°C 37.0°F2.8°C 90% 1.0 mph SW1.6 kmh SW 7.0 mph11.3 kmh 29.34 in993.6 mb 0.00 in0.0 mm 0.00 in0.0 mm 0.53 in13.5 mm